LOWILSZA

Guest
Details From LOWI - INNSBRUCK
To LSZA - Lugano
Flight Number -
Tags None
Created
Modified
Stats Distance 156 nm / 289 km
Max Altitude 0 ft / 0 m
Waypoints 9
Social Downloads 6
Likes 0
Share VATSIM

Download

Looking for another format? Having issues loading an existing format? Contact us
Advertisement - Login to hide

Notes

None

Route

+47.258_+011.331 LOWI INN BRENO BZO RENTA GIGGI LUSIL LSZA

ID Type Via Altitude Latitude Longitude Leg Dist Tot Dist Heading (true) Name
O +47.258_+011.331 LATLON - 0 ft / 0 m 47.25884˚ 11.33107˚ - 0 nm - -
LOWI APT - 0 ft / 0 m 47.26023˚ 11.34397˚ 0 nm 0 nm 81° / 81° Innsbruck Kranebitten
INN NDB - 0 ft / 0 m 47.23001˚ 11.40188˚ 2 nm 3 nm 128° / 128° INNSBRUCK NDB
BRENO FIX - 0 ft / 0 m 46.98000˚ 11.37667˚ 15 nm 18 nm 184° / 184° -
BZO NDB - 0 ft / 0 m 46.46389˚ 11.32222˚ 31 nm 49 nm 184° / 184° BOLZANO NDB
RENTA FIX - 0 ft / 0 m 46.30556˚ 10.86361˚ 21 nm 70 nm 244° / 243° -
GIGGI FIX - 0 ft / 0 m 46.15417˚ 10.43028˚ 20 nm 91 nm 243° / 243° -
LUSIL FIX - 0 ft / 0 m 46.04306˚ 10.11667˚ 14 nm 105 nm 243° / 243° -
O LSZA APT - 0 ft / 0 m 46.00427˚ 8.91059˚ 50 nm 156 nm 268° / 267° Lugano

Altitude Profile

Advertisement - Login to hide

LOWI

Details ICAO LOWI (INN)
Name Innsbruck Kranebitten
Region Austria
Timezone Europe/Vienna (UTC+1.0)
Stats Elevation 1,906 ft / 581 m (AMSL)
Location 47.260226° 11.343967°
Runways 1
Magnetic Variation 3.018° E

METAR

LOWI 110520Z 27011KT 240V300 9999 FEW060 SCT070 BKN160 M01/M03 Q0991 WS R26 R08/19//95 NOSIG

Decode

TAF

TAF TAF LOWI 110515Z 1106/1206 27010G20KT 9999 FEW070 BKN120 TX12/1113Z TN00/1106Z BECMG 1108/1110 10012G25KT TEMPO 1109/1120 13025G50KT PROB40 TEMPO 1110/1119 06040G60KT BECMG 1120/1122 27007KT -RA SCT040 BKN060 TEMPO 1122/1206 30015G25KT RA SCT010 BKN030

Decode

Departure Runways

ID Width Length Bearing (true) Bearing (mag) Surface Threshold Offset Overrun Length
08 148 ft / 45 m 6,545 ft / 1,995 m 81.02° 78.00° Asphalt 338 ft / 103 m 0 ft / 0 m
26 148 ft / 45 m 6,545 ft / 1,995 m 261.04° 258.02° Asphalt 0 ft / 0 m 0 ft / 0 m

LSZA

Details ICAO LSZA (LUG)
Name Lugano
Region Switzerland
Timezone Europe/Zurich (UTC+1.0)
Stats Elevation 915 ft / 279 m (AMSL)
Location 46.004275° 8.910579°
Runways 1
Magnetic Variation 2.422° E

METAR

LSZA 110520Z VRB01KT 1100 SN VV009 M00/M00 Q1000 NOSIG

Decode

TAF

Not found

Destination Runways

ID Width Length Bearing (true) Bearing (mag) Surface Threshold Offset Overrun Length
01 98 ft / 30 m 4,430 ft / 1,350 m 18.79° 16.37° Asphalt 361 ft / 110 m 0 ft / 0 m
19 98 ft / 30 m 4,430 ft / 1,350 m 198.79° 196.37° Asphalt 673 ft / 205 m 0 ft / 0 m

Approach Navaids

Runway Type Ident Frequency Range Bearing (true) Bearing (mag) Slope Elevation
01 Localiser ILU 111.50 MHz 18 nm / 33 km 18.79° 16.37° - 928 ft / 283 m (AMSL)
01 Glidescope ILU 111.50 MHz 10 nm / 19 km 19.99° 17.57° 6.00° 928 ft / 283 m (AMSL)
01 DME ILU 111.50 MHz 18 nm / 33 km - - - 928 ft / 283 m (AMSL)

Popular Alternatives